createdAt,value
2019-05-26T00:01:04.561Z,11.50
2019-05-26T00:03:34.773Z,11.50
2019-05-26T00:06:05.122Z,11.50
2019-05-26T00:08:35.364Z,11.40
2019-05-26T00:11:05.524Z,11.40
2019-05-26T00:13:35.879Z,11.30
2019-05-26T00:16:06.168Z,11.20
2019-05-26T00:18:36.308Z,11.20
2019-05-26T00:21:06.545Z,11.10
2019-05-26T00:23:36.809Z,11.10
2019-05-26T00:26:07.572Z,11.00
2019-05-26T00:28:38.081Z,11.00
2019-05-26T00:31:08.390Z,10.90
2019-05-26T00:33:38.559Z,10.90
2019-05-26T00:36:08.754Z,10.90
2019-05-26T00:38:39.052Z,10.80
2019-05-26T00:41:09.327Z,10.80
2019-05-26T00:43:39.504Z,10.80
2019-05-26T00:46:09.731Z,10.70
2019-05-26T00:48:40.044Z,10.70
2019-05-26T00:51:11.510Z,10.60
2019-05-26T00:53:41.711Z,10.60
2019-05-26T00:56:11.864Z,10.50
2019-05-26T00:58:42.102Z,10.50
2019-05-26T01:01:12.434Z,10.50
2019-05-26T01:03:42.498Z,10.50
2019-05-26T01:06:12.671Z,10.40
2019-05-26T01:08:42.817Z,10.40
2019-05-26T01:11:12.987Z,10.40
2019-05-26T01:13:44.070Z,10.30
2019-05-26T01:16:15.354Z,10.30
2019-05-26T01:18:45.553Z,10.30
2019-05-26T01:21:15.700Z,10.30
2019-05-26T01:23:45.829Z,10.20
2019-05-26T01:26:16.013Z,10.20
2019-05-26T01:28:46.286Z,10.20
2019-05-26T01:31:16.530Z,10.20
2019-05-26T01:33:46.728Z,10.20
2019-05-26T01:36:17.147Z,10.20
2019-05-26T01:38:48.121Z,10.20
2019-05-26T01:41:18.355Z,10.20
2019-05-26T01:43:48.544Z,10.10
2019-05-26T01:46:18.838Z,10.10
2019-05-26T01:48:50.010Z,10.10
2019-05-26T01:51:20.293Z,10.10
2019-05-26T01:53:50.365Z,10.00
2019-05-26T01:56:20.449Z,10.00
2019-05-26T01:58:50.707Z,10.00
2019-05-26T02:01:20.891Z,10.00
2019-05-26T02:03:51.250Z,10.00
2019-05-26T02:06:21.630Z,10.00
2019-05-26T02:08:52.084Z,10.00
2019-05-26T02:11:22.194Z,10.00
2019-05-26T02:13:52.366Z,9.90
2019-05-26T02:16:22.425Z,9.90
2019-05-26T02:18:52.559Z,9.90
2019-05-26T02:21:22.859Z,9.90
2019-05-26T02:23:52.950Z,9.80
2019-05-26T02:26:23.069Z,9.80
2019-05-26T02:28:53.167Z,9.80
2019-05-26T02:31:23.198Z,9.80
2019-05-26T02:33:53.239Z,9.90
2019-05-26T02:36:23.379Z,9.90
2019-05-26T02:39:01.930Z,9.90
2019-05-26T02:41:25.394Z,9.90
2019-05-26T02:43:55.514Z,9.90
2019-05-26T02:46:25.724Z,10.00
2019-05-26T02:48:55.951Z,10.00
2019-05-26T02:51:26.157Z,10.00
2019-05-26T02:53:56.299Z,10.10
2019-05-26T02:56:26.996Z,10.10
2019-05-26T02:58:57.200Z,10.20
2019-05-26T03:01:27.937Z,10.20
2019-05-26T03:03:58.094Z,10.20
2019-05-26T03:06:29.669Z,10.30
2019-05-26T03:09:20.873Z,10.30
2019-05-26T03:11:35.108Z,10.30
2019-05-26T03:14:06.395Z,10.30
2019-05-26T03:16:38.385Z,10.40
2019-05-26T03:19:08.781Z,10.40
2019-05-26T03:21:39.386Z,10.50
2019-05-26T03:24:09.518Z,10.50
2019-05-26T03:26:39.684Z,10.50
2019-05-26T03:29:09.713Z,10.50
2019-05-26T03:31:39.811Z,10.60
2019-05-26T03:34:09.875Z,10.60
2019-05-26T03:36:39.952Z,10.60
2019-05-26T03:39:12.401Z,10.70
2019-05-26T03:41:42.652Z,10.70
2019-05-26T03:44:13.943Z,10.70
2019-05-26T03:46:45.627Z,10.80
2019-05-26T03:49:15.763Z,10.90
2019-05-26T03:51:45.894Z,10.80
2019-05-26T03:54:16.347Z,10.90
2019-05-26T03:56:46.443Z,10.90
2019-05-26T03:59:16.403Z,11.00
2019-05-26T04:01:46.656Z,11.00
2019-05-26T04:04:16.783Z,11.10
2019-05-26T04:06:46.836Z,11.10
2019-05-26T04:09:17.226Z,11.20
2019-05-26T04:11:47.430Z,11.20
2019-05-26T04:14:17.439Z,11.20
2019-05-26T04:16:47.474Z,11.20
2019-05-26T04:19:17.527Z,11.20
2019-05-26T04:21:47.808Z,11.20
2019-05-26T04:24:17.853Z,11.30
2019-05-26T04:26:48.167Z,11.30
2019-05-26T04:29:18.313Z,11.40
2019-05-26T04:31:48.585Z,11.40
2019-05-26T04:34:18.676Z,11.40
2019-05-26T04:36:48.847Z,11.50
2019-05-26T04:39:19.070Z,11.50
2019-05-26T04:41:48.989Z,11.50
2019-05-26T04:44:19.055Z,11.60
2019-05-26T04:46:49.115Z,11.70
2019-05-26T04:49:19.335Z,11.70
2019-05-26T04:51:49.487Z,11.80
2019-05-26T04:54:19.623Z,11.80
2019-05-26T04:56:49.710Z,11.90
2019-05-26T04:59:19.800Z,11.90
2019-05-26T05:01:49.942Z,12.00
2019-05-26T05:04:20.496Z,12.00
2019-05-26T05:06:50.703Z,12.10
2019-05-26T05:09:20.880Z,12.20
2019-05-26T05:11:50.981Z,12.20
2019-05-26T05:14:20.982Z,12.30
2019-05-26T05:16:50.987Z,12.40
2019-05-26T05:19:21.038Z,12.40
2019-05-26T05:21:51.064Z,12.50
2019-05-26T05:24:21.030Z,12.60
2019-05-26T05:26:51.208Z,12.60
2019-05-26T05:29:21.527Z,12.70
2019-05-26T05:31:51.768Z,12.80
2019-05-26T05:34:21.805Z,12.80
2019-05-26T05:36:51.845Z,12.80
2019-05-26T05:39:23.154Z,12.90
2019-05-26T05:41:53.323Z,12.90
2019-05-26T05:44:23.360Z,13.00
2019-05-26T05:46:53.438Z,13.10
2019-05-26T05:49:24.022Z,13.10
2019-05-26T05:51:54.111Z,13.30
2019-05-26T05:54:24.395Z,13.40
2019-05-26T05:56:55.736Z,13.50
2019-05-26T05:59:28.023Z,13.50
2019-05-26T06:01:58.628Z,13.60
2019-05-26T06:04:29.839Z,13.60
2019-05-26T06:07:00.244Z,13.70
2019-05-26T06:09:30.229Z,13.70
2019-05-26T06:12:00.285Z,13.70
2019-05-26T06:14:31.326Z,13.70
2019-05-26T06:17:01.558Z,13.80
2019-05-26T06:19:31.838Z,13.90
2019-05-26T06:22:02.108Z,14.00
2019-05-26T06:24:32.205Z,14.10
2019-05-26T06:27:06.222Z,14.10
2019-05-26T06:29:37.620Z,14.30
2019-05-26T06:32:08.083Z,14.40
2019-05-26T06:34:38.561Z,14.50
2019-05-26T06:37:08.629Z,14.50
2019-05-26T06:39:38.738Z,14.60
2019-05-26T06:42:12.620Z,14.70
2019-05-26T06:44:53.074Z,14.70
2019-05-26T06:47:12.531Z,14.60
2019-05-26T06:49:42.815Z,14.60
2019-05-26T06:52:12.874Z,14.60
2019-05-26T06:54:43.018Z,14.50
2019-05-26T06:57:14.126Z,14.50
2019-05-26T06:59:44.194Z,14.50
2019-05-26T07:02:14.386Z,14.60
2019-05-26T07:04:44.397Z,14.60
2019-05-26T07:07:14.721Z,14.70
2019-05-26T07:09:44.821Z,14.70
2019-05-26T07:12:15.139Z,14.80
2019-05-26T07:14:46.890Z,14.90
2019-05-26T07:17:20.381Z,15.00
2019-05-26T07:19:49.045Z,15.10
2019-05-26T07:22:19.035Z,15.10
2019-05-26T07:24:49.294Z,15.20
2019-05-26T07:27:19.848Z,15.20
2019-05-26T07:29:49.852Z,15.40
2019-05-26T07:32:20.057Z,15.40
2019-05-26T07:34:50.146Z,15.50
2019-05-26T07:37:20.309Z,15.60
2019-05-26T07:39:50.428Z,15.60
2019-05-26T07:42:20.626Z,15.60
2019-05-26T07:44:50.799Z,15.60
2019-05-26T07:47:20.994Z,15.70
2019-05-26T07:50:10.358Z,15.80
2019-05-26T07:52:40.462Z,15.70
2019-05-26T07:55:12.565Z,15.80
2019-05-26T07:57:42.729Z,15.80
2019-05-26T08:00:13.273Z,15.90
2019-05-26T08:02:43.326Z,15.90
2019-05-26T08:05:13.690Z,16.00
2019-05-26T08:07:43.894Z,16.10
2019-05-26T08:10:14.547Z,16.10
2019-05-26T08:12:44.715Z,16.20
2019-05-26T08:15:15.107Z,16.30
2019-05-26T08:17:45.366Z,16.30
2019-05-26T08:20:16.106Z,16.40
2019-05-26T08:22:46.293Z,16.50
2019-05-26T08:25:16.814Z,16.50
2019-05-26T08:27:46.850Z,16.60
2019-05-26T08:30:17.308Z,16.70
2019-05-26T08:32:47.605Z,16.70
2019-05-26T08:35:17.820Z,16.70
2019-05-26T08:37:47.963Z,16.80
2019-05-26T08:40:18.255Z,16.80
2019-05-26T08:42:50.481Z,16.90
2019-05-26T08:45:22.793Z,16.90
2019-05-26T08:47:54.227Z,17.00
2019-05-26T08:50:24.460Z,17.10
2019-05-26T08:52:54.747Z,17.20
2019-05-26T08:55:25.222Z,17.30
2019-05-26T08:57:55.486Z,17.30
2019-05-26T09:00:25.898Z,17.30
2019-05-26T09:02:56.229Z,17.20
2019-05-26T09:05:26.482Z,17.20
2019-05-26T09:07:57.173Z,17.20
2019-05-26T09:10:27.649Z,17.20
2019-05-26T09:13:01.221Z,17.40
2019-05-26T09:15:29.841Z,17.40
2019-05-26T09:18:00.053Z,17.40
2019-05-26T09:20:30.343Z,17.50
2019-05-26T09:23:00.564Z,17.60
2019-05-26T09:25:30.746Z,17.80
2019-05-26T09:28:00.942Z,17.80
2019-05-26T09:30:31.387Z,17.90
2019-05-26T09:33:01.638Z,18.00
2019-05-26T09:35:31.754Z,17.90
2019-05-26T09:38:01.975Z,17.90
2019-05-26T09:40:32.159Z,18.00
2019-05-26T09:43:15.063Z,18.00
2019-05-26T09:45:34.328Z,18.10
2019-05-26T09:48:04.749Z,18.20
2019-05-26T09:50:35.191Z,18.20
2019-05-26T09:53:05.262Z,18.20
2019-05-26T09:55:35.490Z,18.30
2019-05-26T09:58:05.628Z,18.40
2019-05-26T10:00:36.944Z,18.50
2019-05-26T10:03:07.255Z,18.50
2019-05-26T10:05:37.460Z,18.60
2019-05-26T10:08:08.928Z,18.60
2019-05-26T10:10:39.303Z,18.60
2019-05-26T10:13:09.477Z,18.60
2019-05-26T10:15:39.600Z,18.60
2019-05-26T10:18:09.898Z,18.60
2019-05-26T10:20:40.216Z,18.80
2019-05-26T10:23:10.430Z,19.00
2019-05-26T10:25:40.518Z,19.00
2019-05-26T10:28:10.654Z,18.90
2019-05-26T10:30:40.820Z,18.80
2019-05-26T10:33:10.859Z,18.80
2019-05-26T10:35:41.051Z,18.90
2019-05-26T10:38:11.291Z,19.00
2019-05-26T10:40:41.720Z,19.10
2019-05-26T10:43:13.259Z,19.10
2019-05-26T10:45:43.593Z,19.20
2019-05-26T10:48:13.933Z,19.30
2019-05-26T10:50:44.233Z,19.30
2019-05-26T10:53:14.216Z,19.40
2019-05-26T10:55:44.327Z,19.50
2019-05-26T10:58:14.603Z,19.50
2019-05-26T11:00:45.895Z,19.50
2019-05-26T11:03:16.097Z,19.70
2019-05-26T11:05:46.326Z,19.90
2019-05-26T11:08:16.340Z,20.10
2019-05-26T11:10:46.383Z,20.20
2019-05-26T11:13:17.884Z,20.20
2019-05-26T11:15:48.183Z,20.10
2019-05-26T11:18:18.395Z,19.90
2019-05-26T11:20:48.624Z,19.90
2019-05-26T11:23:18.824Z,19.70
2019-05-26T11:25:48.950Z,19.60
2019-05-26T11:28:20.233Z,19.60
2019-05-26T11:30:50.281Z,19.70
2019-05-26T11:33:20.389Z,19.90
2019-05-26T11:35:50.664Z,20.10
2019-05-26T11:38:20.812Z,20.40
2019-05-26T11:40:51.055Z,20.50
2019-05-26T11:43:21.168Z,20.50
2019-05-26T11:45:51.240Z,20.50
2019-05-26T11:48:21.457Z,20.50
2019-05-26T11:50:51.679Z,20.50
2019-05-26T11:53:22.274Z,20.60
2019-05-26T11:55:52.341Z,20.70
2019-05-26T11:58:22.513Z,20.80
2019-05-26T12:00:52.698Z,20.80
2019-05-26T12:03:22.917Z,20.80
2019-05-26T12:05:53.120Z,21.00
2019-05-26T12:08:23.323Z,21.10
2019-05-26T12:10:53.522Z,21.10
2019-05-26T12:13:23.711Z,21.10
2019-05-26T12:15:53.972Z,21.10
2019-05-26T12:18:24.191Z,21.00
2019-05-26T12:20:54.502Z,20.90
2019-05-26T12:23:24.697Z,20.80
2019-05-26T12:25:54.751Z,20.80
2019-05-26T12:28:25.002Z,20.70
2019-05-26T12:30:55.206Z,20.70
2019-05-26T12:33:25.313Z,20.80
2019-05-26T12:35:55.534Z,21.00
2019-05-26T12:38:25.474Z,21.20
2019-05-26T12:40:55.537Z,21.30
2019-05-26T12:43:25.896Z,21.30
2019-05-26T12:45:56.065Z,21.40
2019-05-26T12:48:26.132Z,21.50
2019-05-26T12:50:56.160Z,21.40
2019-05-26T12:53:26.286Z,21.30
2019-05-26T12:55:56.543Z,21.20
2019-05-26T12:58:26.700Z,21.20
2019-05-26T13:00:56.821Z,21.40
2019-05-26T13:03:26.995Z,21.50
2019-05-26T13:05:57.143Z,21.70
2019-05-26T13:08:27.298Z,21.50
2019-05-26T13:10:57.579Z,21.40
2019-05-26T13:13:27.729Z,21.40
2019-05-26T13:15:57.889Z,21.30
2019-05-26T13:18:27.866Z,21.10
2019-05-26T13:20:58.044Z,21.10
2019-05-26T13:23:28.213Z,21.10
2019-05-26T13:25:58.446Z,21.20
2019-05-26T13:28:28.888Z,21.30
2019-05-26T13:30:59.851Z,21.50
2019-05-26T13:33:30.027Z,21.70
2019-05-26T13:36:00.103Z,21.80
2019-05-26T13:38:30.350Z,21.80
2019-05-26T13:41:00.386Z,21.80
2019-05-26T13:43:30.479Z,21.80
2019-05-26T13:46:00.510Z,21.90
2019-05-26T13:48:30.750Z,22.00
2019-05-26T13:51:00.878Z,22.10
2019-05-26T13:53:32.188Z,22.10
2019-05-26T13:56:03.997Z,22.10
2019-05-26T13:58:34.195Z,22.20
2019-05-26T14:01:04.432Z,22.10
2019-05-26T14:03:34.629Z,22.00
2019-05-26T14:06:04.863Z,21.90
2019-05-26T14:08:35.029Z,21.80
2019-05-26T14:11:05.398Z,21.80
2019-05-26T14:13:35.609Z,21.80
2019-05-26T14:16:05.778Z,21.80
2019-05-26T14:18:37.590Z,22.00
2019-05-26T14:21:07.702Z,22.10
2019-05-26T14:23:37.966Z,22.10
2019-05-26T14:26:08.009Z,22.10
2019-05-26T14:28:38.061Z,22.20
2019-05-26T14:31:08.290Z,22.30
2019-05-26T14:33:38.543Z,22.30
2019-05-26T14:36:08.683Z,22.10
2019-05-26T14:38:43.215Z,22.10
2019-05-26T14:41:10.604Z,22.20
2019-05-26T14:43:41.904Z,22.40
2019-05-26T14:46:12.053Z,22.50
2019-05-26T14:48:42.575Z,22.40
2019-05-26T14:51:12.901Z,22.40
2019-05-26T14:53:42.968Z,22.40
2019-05-26T14:56:13.110Z,22.50
2019-05-26T14:58:43.110Z,22.50
2019-05-26T15:01:13.428Z,22.50
2019-05-26T15:03:43.709Z,22.50
2019-05-26T15:06:13.961Z,22.40
2019-05-26T15:08:44.212Z,22.30
2019-05-26T15:11:14.509Z,22.20
2019-05-26T15:13:44.818Z,22.10
2019-05-26T15:16:15.105Z,22.00
2019-05-26T15:18:45.382Z,21.90
2019-05-26T15:21:18.117Z,21.90
2019-05-26T15:23:47.425Z,22.00
2019-05-26T15:26:17.688Z,22.10
2019-05-26T15:28:47.950Z,22.10
2019-05-26T15:31:18.101Z,22.20
2019-05-26T15:33:48.150Z,22.30
2019-05-26T15:36:18.864Z,22.20
2019-05-26T15:38:49.028Z,22.20
2019-05-26T15:41:19.244Z,22.20
2019-05-26T15:43:50.522Z,22.10
2019-05-26T15:46:25.357Z,22.10
2019-05-26T15:48:52.613Z,22.00
2019-05-26T15:51:22.690Z,21.80
2019-05-26T15:53:53.854Z,21.70
2019-05-26T15:56:24.119Z,21.80
2019-05-26T15:58:54.317Z,21.90
2019-05-26T16:01:24.568Z,22.10
2019-05-26T16:03:54.747Z,22.20
2019-05-26T16:06:28.288Z,22.30
2019-05-26T16:08:58.381Z,22.30
2019-05-26T16:11:28.867Z,22.20
2019-05-26T16:13:59.249Z,22.40
2019-05-26T16:16:40.655Z,22.50
2019-05-26T16:19:01.339Z,22.60
2019-05-26T16:21:31.459Z,22.50
2019-05-26T16:24:01.676Z,22.30
2019-05-26T16:26:31.783Z,22.10
2019-05-26T16:29:03.191Z,22.10
2019-05-26T16:31:33.304Z,21.90
2019-05-26T16:34:03.449Z,21.80
2019-05-26T16:36:33.675Z,21.70
2019-05-26T16:39:04.876Z,21.50
2019-05-26T16:41:35.947Z,21.40
2019-05-26T16:44:06.365Z,21.30
2019-05-26T16:46:36.553Z,21.30
2019-05-26T16:49:06.828Z,21.20
2019-05-26T16:51:36.910Z,21.10
2019-05-26T16:54:06.952Z,21.10
2019-05-26T16:56:37.116Z,21.10
2019-05-26T16:59:07.459Z,21.10
2019-05-26T17:01:37.703Z,21.10
2019-05-26T17:04:07.988Z,21.00
2019-05-26T17:06:38.739Z,21.00
2019-05-26T17:09:09.380Z,20.90
2019-05-26T17:11:39.717Z,20.90
2019-05-26T17:14:10.081Z,20.80
2019-05-26T17:16:40.187Z,20.80
2019-05-26T17:19:10.367Z,20.80
2019-05-26T17:21:40.895Z,20.70
2019-05-26T17:24:11.179Z,20.60
2019-05-26T17:26:42.121Z,20.60
2019-05-26T17:29:12.571Z,20.60
2019-05-26T17:31:42.908Z,20.50
2019-05-26T17:34:13.166Z,20.50
2019-05-26T17:36:43.213Z,20.40
2019-05-26T17:39:13.319Z,20.40
2019-05-26T17:41:43.694Z,20.40
2019-05-26T17:44:13.979Z,20.40
2019-05-26T17:47:03.290Z,20.30
2019-05-26T17:49:34.464Z,20.30
2019-05-26T17:55:04.921Z,20.10
2019-05-26T17:57:37.155Z,20.00
2019-05-26T18:00:08.151Z,20.00
2019-05-26T18:02:38.474Z,19.90
2019-05-26T18:05:09.098Z,19.90
2019-05-26T18:07:39.677Z,19.80
2019-05-26T18:10:10.276Z,19.80
2019-05-26T18:12:40.501Z,19.70
2019-05-26T18:15:12.712Z,19.60
2019-05-26T18:17:47.674Z,19.60
2019-05-26T18:20:15.285Z,19.50
2019-05-26T18:22:45.553Z,19.50
2019-05-26T18:25:15.887Z,19.40
2019-05-26T18:27:46.279Z,19.30
2019-05-26T18:30:17.927Z,19.30
2019-05-26T18:32:48.306Z,19.20
2019-05-26T18:35:18.646Z,19.10
2019-05-26T18:37:52.137Z,19.10
2019-05-26T18:40:21.008Z,19.00
2019-05-26T18:42:51.706Z,18.90
2019-05-26T18:45:21.970Z,18.80
2019-05-26T18:48:02.528Z,18.80
2019-05-26T18:50:28.382Z,18.70
2019-05-26T18:52:58.637Z,18.70
2019-05-26T18:55:30.546Z,18.60
2019-05-26T18:58:01.407Z,18.60
2019-05-26T19:00:32.989Z,18.50
2019-05-26T19:03:09.761Z,18.40
2019-05-26T19:05:39.870Z,18.30
2019-05-26T19:08:12.577Z,18.30
2019-05-26T19:10:47.141Z,18.20
2019-05-26T19:13:18.231Z,18.10
2019-05-26T19:15:51.155Z,18.00
2019-05-26T19:18:21.500Z,17.90
2019-05-26T19:20:52.162Z,17.80
2019-05-26T19:23:27.516Z,17.80
2019-05-26T19:25:57.719Z,17.80
2019-05-26T19:28:29.236Z,17.70
2019-05-26T19:30:59.339Z,17.70
2019-05-26T19:33:29.814Z,17.60
2019-05-26T19:36:00.380Z,17.50
2019-05-26T19:38:31.005Z,17.40
2019-05-26T19:41:01.784Z,17.30
2019-05-26T19:43:32.201Z,17.20
2019-05-26T19:46:02.492Z,17.10
2019-05-26T19:48:36.719Z,16.90
2019-05-26T19:51:05.890Z,16.80
2019-05-26T19:53:36.347Z,16.70
2019-05-26T19:56:07.701Z,16.60
2019-05-26T19:58:40.016Z,16.50
2019-05-26T20:01:10.205Z,16.40
2019-05-26T20:03:40.627Z,16.30
2019-05-26T20:06:10.875Z,16.20
